Time;durP1;ratioP1;P1;durP2;ratioP2;P2;SDS_P1;SDS_P2;PMS_P1;PMS_P2;Temp;Humidity;BMP_temperature;BMP_pressure;BME280_temperature;BME280_humidity;BME280_pressure;Samples;Min_cycle;Max_cycle;Signal;HPM_P1;HPM_P2
2022/04/06 00:00:49;;;;;;;12.65;2.00;;;11.20;99.90;;;;;;5023853;28;20060;-71
2022/04/06 00:03:15;;;;;;;11.15;1.65;;;11.20;99.90;;;;;;5024252;28;20097;-70
2022/04/06 00:05:41;;;;;;;8.35;1.60;;;11.20;99.90;;;;;;5023614;28;20089;-71
2022/04/06 00:08:07;;;;;;;19.48;1.83;;;11.20;99.90;;;;;;5024599;28;20025;-70
2022/04/06 00:10:33;;;;;;;8.65;1.08;;;11.20;99.90;;;;;;5024630;28;20089;-70
2022/04/06 00:12:59;;;;;;;15.73;1.83;;;11.10;99.90;;;;;;5006668;28;20026;-71
2022/04/06 00:15:25;;;;;;;9.10;1.77;;;11.10;99.90;;;;;;5024462;28;20191;-70
2022/04/06 00:17:51;;;;;;;9.52;1.58;;;11.10;99.90;;;;;;5023291;28;20028;-71
2022/04/06 00:20:17;;;;;;;12.10;1.63;;;10.90;99.90;;;;;;5007098;28;20018;-70
2022/04/06 00:22:43;;;;;;;13.63;1.42;;;10.90;99.90;;;;;;5024229;28;20021;-69
2022/04/06 00:25:09;;;;;;;7.57;1.90;;;10.80;99.90;;;;;;5023446;28;20022;-70
2022/04/06 00:27:35;;;;;;;9.98;1.73;;;10.80;99.90;;;;;;5023361;28;20030;-70
2022/04/06 00:30:01;;;;;;;12.70;1.55;;;10.80;99.90;;;;;;5023169;28;20394;-70
2022/04/06 00:32:27;;;;;;;12.50;1.50;;;10.80;99.90;;;;;;5022760;28;20025;-70
2022/04/06 00:37:38;;;;;;;12.13;2.00;;;10.90;99.90;;;;;;5017306;28;20060;-70
2022/04/06 00:40:05;;;;;;;10.15;1.73;;;10.90;99.90;;;;;;4970587;28;20029;-71
2022/04/06 00:42:31;;;;;;;9.38;1.35;;;10.90;99.90;;;;;;5004069;28;20033;-71
2022/04/06 00:44:57;;;;;;;6.95;1.20;;;10.90;99.90;;;;;;4986942;28;20030;-70
2022/04/06 00:47:22;;;;;;;9.63;1.50;;;10.90;99.90;;;;;;5015648;28;20017;-69
2022/04/06 00:49:48;;;;;;;8.38;1.58;;;10.80;99.90;;;;;;5006349;28;20033;-69
2022/04/06 00:52:13;;;;;;;12.32;1.92;;;10.80;99.90;;;;;;5021604;28;20026;-70
2022/04/06 00:54:40;;;;;;;10.90;1.52;;;10.80;99.90;;;;;;5023794;28;20363;-70
2022/04/06 00:57:07;;;;;;;14.05;2.08;;;10.80;99.90;;;;;;5024056;28;20026;-70
2022/04/06 00:59:33;;;;;;;9.40;1.23;;;10.80;99.90;;;;;;5006600;28;20017;-70
2022/04/06 01:01:59;;;;;;;11.32;1.85;;;10.80;99.90;;;;;;5006409;28;20026;-70
2022/04/06 01:04:25;;;;;;;16.00;1.95;;;10.70;99.90;;;;;;5022760;28;20037;-70
2022/04/06 01:06:53;;;;;;;6.60;1.15;;;10.60;99.90;;;;;;5023849;28;20018;-69
2022/04/06 01:09:20;;;;;;;11.88;1.88;;;10.60;99.90;;;;;;5023768;28;20098;-71
2022/04/06 01:11:48;;;;;;;20.27;2.28;;;10.60;99.90;;;;;;5023860;28;20097;-70
2022/04/06 01:14:15;;;;;;;13.77;1.98;;;10.60;99.90;;;;;;5006082;28;20099;-71
2022/04/06 01:16:41;;;;;;;8.45;1.77;;;10.70;99.90;;;;;;5023805;28;20072;-70
2022/04/06 01:19:07;;;;;;;7.82;1.38;;;10.70;99.90;;;;;;5023872;28;20089;-70
2022/04/06 01:21:33;;;;;;;10.57;1.50;;;10.60;99.90;;;;;;5022664;28;20021;-70
2022/04/06 01:23:59;;;;;;;15.32;2.13;;;10.60;99.90;;;;;;5022447;28;20072;-71
2022/04/06 01:26:25;;;;;;;13.88;1.60;;;10.60;99.90;;;;;;5022510;28;20026;-70
2022/04/06 01:28:51;;;;;;;10.57;1.40;;;10.60;99.90;;;;;;5023618;28;20053;-70
2022/04/06 01:31:17;;;;;;;8.02;1.40;;;10.60;99.90;;;;;;5022441;28;20018;-69
2022/04/06 01:33:43;;;;;;;8.38;1.13;;;10.60;99.90;;;;;;5022104;28;20053;-70
2022/04/06 01:36:09;;;;;;;15.93;2.05;;;10.70;99.90;;;;;;5006106;28;20030;-69
2022/04/06 01:38:35;;;;;;;8.20;1.25;;;10.70;99.90;;;;;;5039062;28;20049;-70
2022/04/06 01:41:01;;;;;;;9.05;1.50;;;10.70;99.90;;;;;;5022499;28;20018;-71
2022/04/06 01:43:27;;;;;;;7.95;1.30;;;10.70;99.90;;;;;;5022087;28;20217;-69
2022/04/06 01:45:53;;;;;;;13.57;1.95;;;10.70;99.90;;;;;;5023185;28;20026;-70
2022/04/06 01:48:19;;;;;;;9.18;1.35;;;10.80;99.90;;;;;;5022075;28;20077;-70
2022/04/06 01:53:31;;;;;;;9.90;1.67;;;10.80;99.90;;;;;;5011342;28;20022;-70
2022/04/06 01:55:58;;;;;;;8.10;1.17;;;10.70;99.90;;;;;;5009639;28;20324;-69
2022/04/06 01:58:23;;;;;;;5.28;1.05;;;10.70;99.90;;;;;;5026009;28;20029;-69
2022/04/06 02:00:50;;;;;;;12.02;1.30;;;10.70;99.90;;;;;;5009378;28;20050;-71
2022/04/06 02:03:16;;;;;;;11.63;1.50;;;10.70;99.90;;;;;;5009235;28;20316;-70
2022/04/06 02:05:42;;;;;;;8.48;1.45;;;10.60;99.90;;;;;;5025693;28;20309;-69
2022/04/06 02:08:08;;;;;;;7.80;1.25;;;10.60;99.90;;;;;;5025799;28;20036;-70
2022/04/06 02:10:34;;;;;;;9.75;1.70;;;10.50;99.90;;;;;;5026884;28;20026;-69
2022/04/06 02:13:00;;;;;;;10.85;1.30;;;10.50;99.90;;;;;;5026384;28;20174;-69
2022/04/06 02:15:28;;;;;;;7.10;1.20;;;10.50;99.90;;;;;;5026657;28;20026;-71
2022/04/06 02:17:54;;;;;;;9.38;2.60;;;10.50;99.90;;;;;;5025515;28;20301;-70
2022/04/06 02:20:20;;;;;;;9.65;1.65;;;10.50;99.90;;;;;;5025632;28;20081;-68
2022/04/06 02:22:46;;;;;;;7.35;1.23;;;10.40;99.90;;;;;;5026736;28;20028;-69
2022/04/06 02:25:12;;;;;;;8.88;1.88;;;10.40;99.90;;;;;;5025250;28;20026;-69
2022/04/06 02:27:54;;;;;;;6.30;1.60;;;10.40;99.90;;;;;;5025567;28;20025;-70
2022/04/06 02:30:20;;;;;;;4.60;1.02;;;10.30;99.90;;;;;;5026462;28;20053;-69
2022/04/06 02:32:47;;;;;;;7.03;1.77;;;10.30;99.90;;;;;;5025268;28;20033;-70
2022/04/06 02:35:13;;;;;;;7.68;1.63;;;10.30;99.90;;;;;;5005446;28;20205;-69
2022/04/06 02:37:41;;;;;;;5.88;1.50;;;10.20;99.90;;;;;;5005727;28;20083;-71
2022/04/06 02:40:08;;;;;;;7.05;0.98;;;10.30;99.90;;;;;;5021934;28;20069;-70
2022/04/06 02:42:34;;;;;;;3.92;1.25;;;10.30;99.90;;;;;;5006314;28;20089;-69
2022/04/06 02:45:00;;;;;;;8.40;0.98;;;10.30;99.90;;;;;;5005371;28;20089;-69
2022/04/06 02:47:25;;;;;;;5.22;1.10;;;10.30;99.90;;;;;;5018142;28;20021;-69
2022/04/06 02:49:51;;;;;;;5.38;1.15;;;10.30;99.90;;;;;;5026136;28;20038;-70
2022/04/06 02:52:17;;;;;;;8.25;1.30;;;10.30;99.90;;;;;;5025051;28;20026;-72
2022/04/06 02:54:42;;;;;;;6.55;0.93;;;10.30;99.90;;;;;;5023380;28;20018;-70
2022/04/06 02:57:08;;;;;;;6.70;1.50;;;10.30;99.90;;;;;;5026127;28;20136;-69
2022/04/06 02:59:34;;;;;;;6.22;0.98;;;10.40;99.90;;;;;;5026068;28;20026;-70
2022/04/06 03:02:00;;;;;;;4.05;1.00;;;10.40;99.90;;;;;;5025102;28;20076;-71
2022/04/06 03:04:25;;;;;;;6.38;1.10;;;10.40;99.90;;;;;;5024757;28;20029;-70
2022/04/06 03:06:51;;;;;;;8.82;1.02;;;10.40;99.90;;;;;;5025584;28;20033;-70
2022/04/06 03:09:17;;;;;;;8.65;1.10;;;10.30;99.90;;;;;;5024561;28;20080;-70
2022/04/06 03:11:43;;;;;;;5.68;1.02;;;10.30;99.90;;;;;;4992056;28;20032;-69
2022/04/06 03:14:09;;;;;;;4.75;0.95;;;10.30;99.90;;;;;;5008135;28;20044;-70
2022/04/06 03:16:35;;;;;;;5.15;1.02;;;10.30;99.90;;;;;;5007819;28;20363;-69
2022/04/06 03:19:01;;;;;;;3.58;0.88;;;10.20;99.90;;;;;;5024383;28;20026;-69
2022/04/06 03:21:27;;;;;;;3.13;0.82;;;10.20;99.90;;;;;;5024465;28;20044;-71
2022/04/06 03:23:53;;;;;;;2.58;0.80;;;10.20;99.90;;;;;;5008114;28;20099;-70
2022/04/06 03:26:18;;;;;;;3.08;0.60;;;10.20;99.90;;;;;;5025347;28;20217;-70
2022/04/06 03:28:44;;;;;;;4.75;0.80;;;10.20;99.90;;;;;;5007970;28;20036;-70
2022/04/06 03:31:10;;;;;;;3.30;0.68;;;10.20;99.90;;;;;;5007876;28;20041;-70
2022/04/06 03:33:35;;;;;;;5.43;0.68;;;10.20;99.90;;;;;;5006515;28;20048;-70
2022/04/06 03:36:02;;;;;;;3.40;0.90;;;10.20;99.90;;;;;;4988429;28;20026;-70
2022/04/06 03:38:28;;;;;;;2.33;0.52;;;10.20;99.90;;;;;;5004522;28;20014;-70
2022/04/06 03:40:54;;;;;;;1.50;0.60;;;10.20;99.90;;;;;;5004538;28;20037;-72
2022/04/06 03:43:19;;;;;;;1.65;0.60;;;10.20;99.90;;;;;;5004157;28;20030;-71
2022/04/06 03:45:45;;;;;;;1.48;0.65;;;10.20;99.90;;;;;;5003913;28;20025;-69
2022/04/06 03:48:10;;;;;;;3.38;1.02;;;10.20;99.90;;;;;;5023452;28;20057;-70
2022/04/06 03:50:36;;;;;;;2.03;0.50;;;10.30;99.90;;;;;;5023987;28;20025;-70
2022/04/06 03:53:02;;;;;;;1.17;0.70;;;10.30;99.90;;;;;;5023664;28;20092;-70
2022/04/06 03:55:27;;;;;;;1.70;0.60;;;10.30;99.90;;;;;;5022450;28;20068;-70
2022/04/06 03:57:53;;;;;;;2.00;0.50;;;10.30;99.90;;;;;;5023447;28;20309;-72
2022/04/06 04:00:19;;;;;;;3.28;1.00;;;10.30;99.90;;;;;;5023376;28;20320;-71
2022/04/06 04:02:46;;;;;;;3.70;0.70;;;10.30;99.90;;;;;;5024752;28;20057;-72
2022/04/06 04:05:12;;;;;;;2.97;0.70;;;10.20;99.90;;;;;;5023736;28;20091;-71
2022/04/06 04:07:38;;;;;;;3.92;0.75;;;10.20;99.90;;;;;;4990881;28;20088;-72
2022/04/06 04:10:09;;;;;;;2.28;0.75;;;10.20;99.90;;;;;;5023387;28;20035;-70
2022/04/06 04:12:35;;;;;;;1.92;0.40;;;10.10;99.90;;;;;;5022827;28;20030;-70
2022/04/06 04:15:01;;;;;;;1.85;0.70;;;10.10;99.90;;;;;;5006536;28;20017;-72
2022/04/06 04:17:27;;;;;;;2.83;0.68;;;10.20;99.90;;;;;;5007105;28;20255;-70
2022/04/06 04:19:53;;;;;;;4.40;0.50;;;10.20;99.90;;;;;;5023442;28;20026;-70
2022/04/06 04:22:19;;;;;;;1.83;0.55;;;10.20;99.90;;;;;;5023077;28;20198;-71
2022/04/06 04:24:45;;;;;;;4.55;0.80;;;10.20;99.90;;;;;;5023166;28;20029;-70
2022/04/06 04:27:10;;;;;;;4.60;0.90;;;10.20;99.90;;;;;;5022933;28;20087;-71
2022/04/06 04:32:58;;;;;;;7.07;1.02;;;10.20;99.90;;;;;;5023532;28;20080;-70
2022/04/06 04:35:24;;;;;;;6.70;1.15;;;10.20;99.90;;;;;;5023081;28;20321;-70
2022/04/06 04:37:50;;;;;;;11.63;1.23;;;10.20;99.90;;;;;;5023108;28;20081;-72
2022/04/06 04:40:17;;;;;;;14.10;1.35;;;10.20;99.90;;;;;;5023089;28;20030;-70
2022/04/06 04:42:43;;;;;;;7.78;1.13;;;10.20;99.90;;;;;;5022522;28;20313;-72
2022/04/06 04:45:10;;;;;;;6.43;1.10;;;10.20;99.90;;;;;;5022585;28;20186;-70
2022/04/06 04:47:37;;;;;;;8.70;1.02;;;10.20;99.90;;;;;;5022694;28;20057;-70
2022/04/06 04:50:04;;;;;;;8.18;1.40;;;10.30;99.90;;;;;;5023926;28;20026;-71
2022/04/06 04:52:30;;;;;;;3.95;0.88;;;10.30;99.90;;;;;;5022996;28;20247;-69
2022/04/06 04:54:55;;;;;;;5.55;0.93;;;10.40;99.90;;;;;;4989671;28;20033;-68
2022/04/06 04:57:21;;;;;;;7.38;0.70;;;10.40;99.90;;;;;;5023682;28;20049;-70
2022/04/06 04:59:47;;;;;;;4.65;1.02;;;10.40;99.90;;;;;;5022849;28;20018;-68
2022/04/06 05:02:12;;;;;;;8.23;1.33;;;10.40;99.90;;;;;;5022760;28;20022;-69
2022/04/06 05:04:38;;;;;;;8.30;0.90;;;10.40;99.90;;;;;;5022927;28;20045;-69
2022/04/06 05:07:04;;;;;;;7.10;1.38;;;10.50;99.90;;;;;;5006413;28;20017;-68
2022/04/06 05:09:30;;;;;;;7.68;0.70;;;10.50;99.90;;;;;;5022785;28;20379;-70
2022/04/06 05:11:56;;;;;;;4.28;0.60;;;10.50;99.90;;;;;;5022791;28;20076;-71
2022/04/06 05:14:21;;;;;;;3.63;0.50;;;10.50;99.90;;;;;;5023785;28;20296;-70
2022/04/06 05:16:47;;;;;;;4.85;1.33;;;10.50;99.90;;;;;;5022430;28;20105;-69
2022/04/06 05:19:13;;;;;;;5.65;0.77;;;10.50;99.90;;;;;;5022491;28;20266;-70
2022/04/06 05:21:39;;;;;;;6.35;0.70;;;10.50;99.90;;;;;;5006368;28;20025;-71
2022/04/06 05:24:05;;;;;;;1.73;0.70;;;10.50;99.90;;;;;;5022344;28;20296;-69
2022/04/06 05:26:31;;;;;;;3.80;0.80;;;10.50;99.90;;;;;;5027589;28;20021;-69
2022/04/06 05:28:56;;;;;;;5.35;0.63;;;10.50;99.90;;;;;;5026226;28;20219;-71
2022/04/06 05:31:22;;;;;;;4.10;0.60;;;10.50;99.90;;;;;;5026015;28;20221;-68
2022/04/06 05:33:48;;;;;;;3.05;1.00;;;10.50;99.90;;;;;;5009817;28;20252;-70
2022/04/06 05:36:14;;;;;;;5.90;0.50;;;10.50;99.90;;;;;;5010098;28;20018;-70
2022/04/06 05:38:40;;;;;;;8.15;1.33;;;10.60;99.90;;;;;;5026226;28;20029;-71
2022/04/06 05:41:07;;;;;;;7.00;0.85;;;10.60;99.90;;;;;;5010094;28;20022;-68
2022/04/06 05:43:32;;;;;;;4.85;0.60;;;10.60;99.90;;;;;;5026821;28;20026;-68
2022/04/06 05:45:58;;;;;;;9.05;1.17;;;10.60;99.90;;;;;;5025965;28;20018;-68
2022/04/06 05:48:24;;;;;;;6.70;1.23;;;10.50;99.90;;;;;;5026638;28;20053;-72
2022/04/06 05:50:50;;;;;;;6.20;1.05;;;10.50;99.90;;;;;;5026216;28;20076;-71
2022/04/06 05:53:16;;;;;;;9.48;1.13;;;10.50;99.90;;;;;;5025754;28;20022;-69
2022/04/06 05:55:42;;;;;;;6.40;1.15;;;10.50;99.90;;;;;;5024664;28;20018;-73
2022/04/06 05:58:08;;;;;;;10.80;1.05;;;10.50;99.90;;;;;;5009084;28;20018;-70
2022/04/06 06:00:34;;;;;;;4.88;1.35;;;10.50;99.90;;;;;;5025812;28;20075;-69
2022/04/06 06:02:59;;;;;;;8.05;1.10;;;10.60;99.90;;;;;;5025991;28;20025;-69
2022/04/06 06:05:25;;;;;;;7.88;1.05;;;10.60;99.90;;;;;;5026968;28;20036;-71
2022/04/06 06:07:51;;;;;;;12.98;1.88;;;10.60;99.90;;;;;;5025725;28;20033;-70
2022/04/06 06:10:17;;;;;;;9.40;1.17;;;10.60;99.90;;;;;;5009139;28;20186;-69
2022/04/06 06:12:43;;;;;;;12.18;1.60;;;10.60;99.90;;;;;;5025518;28;20116;-70
2022/04/06 06:15:09;;;;;;;9.52;1.60;;;10.60;99.90;;;;;;5025298;28;20309;-71
2022/04/06 06:17:37;;;;;;;9.27;1.45;;;10.60;99.90;;;;;;4992918;28;20022;-69
2022/04/06 06:20:03;;;;;;;9.73;1.52;;;10.70;99.90;;;;;;5025518;28;20213;-72
2022/04/06 06:22:28;;;;;;;9.30;1.50;;;10.70;99.90;;;;;;5025574;28;20101;-72
2022/04/06 06:24:54;;;;;;;6.45;1.45;;;10.70;99.90;;;;;;5009272;28;20026;-71
2022/04/06 06:27:20;;;;;;;7.35;1.25;;;10.60;99.90;;;;;;5009264;28;20032;-72
2022/04/06 06:29:48;;;;;;;8.25;1.33;;;10.60;99.90;;;;;;5008620;28;20101;-71
2022/04/06 06:32:13;;;;;;;11.65;1.42;;;10.50;99.90;;;;;;5025276;28;20026;-70
2022/04/06 06:34:39;;;;;;;8.20;1.45;;;10.50;99.90;;;;;;5016503;28;20045;-70
2022/04/06 06:37:05;;;;;;;6.63;1.13;;;10.50;99.90;;;;;;5005704;28;20096;-69
2022/04/06 06:39:31;;;;;;;10.20;1.50;;;10.50;99.90;;;;;;5005573;28;20269;-70
2022/04/06 06:41:57;;;;;;;7.80;1.38;;;10.50;99.90;;;;;;5005518;28;20027;-69
2022/04/06 06:44:22;;;;;;;11.25;1.40;;;10.50;99.90;;;;;;5006251;28;20019;-70
2022/04/06 06:46:48;;;;;;;9.80;1.60;;;10.60;99.90;;;;;;5014547;28;20089;-71
2022/04/06 06:49:15;;;;;;;6.18;1.10;;;10.70;99.90;;;;;;5024467;28;20105;-70
2022/04/06 06:51:42;;;;;;;6.25;0.88;;;10.70;99.90;;;;;;5024857;28;20032;-72
2022/04/06 06:54:08;;;;;;;3.88;1.00;;;10.80;99.90;;;;;;5008836;28;20025;-70
2022/04/06 06:56:33;;;;;;;13.48;1.42;;;10.80;99.90;;;;;;5023446;28;20029;-71
2022/04/06 06:58:59;;;;;;;8.80;1.20;;;10.80;99.90;;;;;;5007894;28;20328;-72
2022/04/06 07:01:25;;;;;;;3.53;0.88;;;10.80;99.90;;;;;;5025362;28;20022;-71
2022/04/06 07:03:51;;;;;;;5.75;1.02;;;10.90;99.90;;;;;;5025973;28;20059;-68
2022/04/06 07:06:17;;;;;;;8.48;1.15;;;11.00;99.90;;;;;;5008604;28;20025;-69
2022/04/06 07:08:43;;;;;;;8.50;1.08;;;11.00;99.90;;;;;;5024790;28;20052;-68
2022/04/06 07:11:09;;;;;;;7.82;1.10;;;11.00;99.90;;;;;;5024634;28;20308;-71
2022/04/06 07:13:35;;;;;;;6.85;0.93;;;11.10;99.90;;;;;;5007682;28;20034;-69
2022/04/06 07:16:05;;;;;;;8.90;1.23;;;11.10;99.90;;;;;;5011969;28;20046;-70
2022/04/06 07:18:32;;;;;;;7.88;1.40;;;11.20;99.90;;;;;;5015035;28;20018;-71
2022/04/06 07:20:58;;;;;;;10.25;1.17;;;11.20;99.90;;;;;;5025182;28;20323;-70
2022/04/06 07:23:23;;;;;;;12.40;2.08;;;11.20;99.90;;;;;;5024299;28;20244;-70
2022/04/06 07:25:49;;;;;;;7.63;1.70;;;11.30;99.90;;;;;;5024843;28;20021;-70
2022/04/06 07:28:15;;;;;;;8.82;1.40;;;11.30;99.90;;;;;;5023776;28;20052;-68
2022/04/06 07:30:40;;;;;;;5.70;1.30;;;11.30;99.90;;;;;;5022866;28;20213;-69
2022/04/06 07:33:09;;;;;;;14.05;1.35;;;11.30;99.90;;;;;;5006951;28;20026;-74
2022/04/06 07:35:35;;;;;;;10.63;1.05;;;11.30;99.90;;;;;;5021579;28;20075;-67
2022/04/06 07:38:01;;;;;;;9.63;1.23;;;11.40;99.90;;;;;;5024276;28;20049;-68
2022/04/06 07:40:27;;;;;;;10.93;1.67;;;11.40;99.90;;;;;;5023853;28;20018;-72
2022/04/06 07:42:52;;;;;;;8.52;1.05;;;11.40;99.90;;;;;;5023547;28;20089;-73
2022/04/06 07:45:20;;;;;;;5.22;0.80;;;11.50;99.90;;;;;;5031777;28;20376;-71
2022/04/06 07:47:48;;;;;;;13.30;1.65;;;11.50;99.90;;;;;;5022975;28;20085;-69
2022/04/06 07:50:15;;;;;;;12.75;2.08;;;11.50;99.90;;;;;;5022903;28;20033;-70
2022/04/06 07:52:42;;;;;;;10.95;1.60;;;11.50;99.90;;;;;;5014021;28;20026;-73
2022/04/06 07:55:10;;;;;;;11.80;1.42;;;11.60;99.90;;;;;;4980394;28;20041;-68
2022/04/06 07:57:36;;;;;;;12.30;1.65;;;11.60;99.90;;;;;;5022284;28;20100;-69
2022/04/06 08:00:08;;;;;;;12.27;1.48;;;11.60;99.90;;;;;;5017614;28;20050;-73
2022/04/06 08:02:34;;;;;;;13.65;2.08;;;11.70;99.90;;;;;;5022982;28;20093;-72
2022/04/06 08:04:59;;;;;;;11.60;1.70;;;11.70;99.90;;;;;;5033448;28;20222;-70
2022/04/06 08:07:25;;;;;;;7.38;1.13;;;11.80;99.90;;;;;;5015330;28;20114;-73
2022/04/06 08:09:51;;;;;;;11.48;1.55;;;11.80;99.90;;;;;;4995651;28;20080;-72
2022/04/06 08:12:16;;;;;;;12.05;2.08;;;11.90;99.90;;;;;;4987278;28;20061;-74
2022/04/06 08:14:46;;;;;;;14.30;2.15;;;11.90;99.90;;;;;;5003563;28;20092;-71
2022/04/06 08:17:12;;;;;;;14.60;1.88;;;12.00;99.90;;;;;;5018251;28;20084;-73
2022/04/06 08:19:37;;;;;;;13.20;2.00;;;12.10;99.90;;;;;;5000705;28;20084;-70
2022/04/06 08:22:03;;;;;;;16.85;1.90;;;12.10;99.90;;;;;;5023299;28;20025;-71
2022/04/06 08:24:29;;;;;;;11.85;1.75;;;12.20;99.90;;;;;;5022010;28;20048;-72
2022/04/06 08:26:55;;;;;;;13.88;2.08;;;12.30;99.90;;;;;;5003641;28;20022;-70
2022/04/06 08:29:21;;;;;;;11.05;1.35;;;12.50;99.90;;;;;;5004380;28;20037;-72
2022/04/06 08:31:46;;;;;;;11.05;1.80;;;12.50;99.90;;;;;;5002987;28;20026;-71
2022/04/06 08:34:12;;;;;;;14.93;2.40;;;12.60;99.90;;;;;;5009808;28;20026;-69
2022/04/06 08:36:40;;;;;;;14.18;2.00;;;12.60;99.90;;;;;;5023152;28;20033;-72
2022/04/06 08:39:06;;;;;;;11.98;1.55;;;12.70;99.90;;;;;;5022732;28;20021;-72
2022/04/06 08:41:32;;;;;;;10.02;1.30;;;12.70;99.90;;;;;;5021973;28;20021;-70
2022/04/06 08:43:58;;;;;;;12.40;1.85;;;12.70;99.90;;;;;;5038296;28;20378;-69
2022/04/06 08:46:25;;;;;;;15.57;1.70;;;12.80;99.90;;;;;;4989547;28;20025;-71
2022/04/06 08:48:51;;;;;;;9.75;1.88;;;12.90;99.90;;;;;;5004385;28;20057;-72
2022/04/06 08:51:18;;;;;;;19.30;3.10;;;12.90;99.90;;;;;;5035751;28;20038;-68
2022/04/06 08:53:45;;;;;;;16.98;1.88;;;12.80;99.90;;;;;;5003147;28;20037;-68
2022/04/06 08:56:12;;;;;;;17.50;2.28;;;12.80;99.90;;;;;;5004417;28;20110;-70
2022/04/06 08:58:38;;;;;;;11.10;1.80;;;12.80;99.90;;;;;;5002577;28;20041;-72
2022/04/06 09:01:04;;;;;;;17.63;2.00;;;12.80;99.90;;;;;;5013830;28;20340;-73
2022/04/06 09:03:30;;;;;;;13.02;1.73;;;12.80;99.90;;;;;;4989745;28;20032;-70
2022/04/06 09:06:05;;;;;;;13.18;1.48;;;12.90;99.90;;;;;;5020645;28;20026;-69
2022/04/06 09:08:47;;;;;;;12.20;2.08;;;13.10;99.90;;;;;;5003106;28;20321;-72
2022/04/06 09:11:17;;;;;;;7.55;1.42;;;13.30;99.90;;;;;;5004305;28;20095;-71
2022/04/06 09:13:46;;;;;;;12.00;1.60;;;13.20;99.90;;;;;;5018088;28;20049;-72
2022/04/06 09:16:14;;;;;;;10.48;1.90;;;13.20;99.90;;;;;;5004321;28;20089;-71
2022/04/06 09:18:44;;;;;;;10.55;1.10;;;13.20;99.90;;;;;;4997018;28;20030;-71
2022/04/06 09:21:13;;;;;;;10.45;2.03;;;13.40;99.90;;;;;;5000557;28;20057;-72
2022/04/06 09:23:39;;;;;;;10.63;1.38;;;13.50;99.90;;;;;;5010700;28;20336;-70
2022/04/06 09:26:06;;;;;;;13.13;1.83;;;13.60;99.90;;;;;;4997540;28;20313;-68
2022/04/06 09:28:32;;;;;;;12.38;1.60;;;13.60;99.90;;;;;;5018716;28;20249;-72
2022/04/06 09:31:01;;;;;;;12.75;1.48;;;13.50;99.90;;;;;;5019413;28;20224;-68
2022/04/06 09:33:30;;;;;;;11.55;1.40;;;13.40;99.90;;;;;;5021898;28;20040;-70
2022/04/06 09:35:58;;;;;;;8.98;1.45;;;13.40;99.90;;;;;;5038838;28;20027;-70
2022/04/06 09:38:27;;;;;;;13.43;1.48;;;13.50;99.90;;;;;;4989845;28;20024;-68
2022/04/06 09:41:14;;;;;;;21.40;2.42;;;13.50;99.90;;;;;;5022374;28;20017;-70
2022/04/06 09:43:40;;;;;;;5.93;1.40;;;13.50;99.90;;;;;;5022291;28;20076;-72
2022/04/06 09:49:14;;;;;;;9.50;1.60;;;13.40;99.90;;;;;;5008402;28;20049;-74
2022/04/06 09:51:43;;;;;;;7.93;1.83;;;13.40;99.90;;;;;;5005631;28;20067;-73
2022/04/06 09:54:12;;;;;;;7.30;1.35;;;13.40;99.80;;;;;;5005759;28;20067;-71
2022/04/06 09:56:39;;;;;;;7.15;1.38;;;13.40;99.90;;;;;;5002296;28;20053;-74
2022/04/06 09:59:06;;;;;;;9.07;1.10;;;13.30;99.80;;;;;;5000788;28;20110;-70
2022/04/06 10:01:34;;;;;;;9.38;1.15;;;13.30;99.90;;;;;;5000741;28;20049;-71
2022/04/06 10:04:07;;;;;;;7.38;0.98;;;13.30;99.80;;;;;;4970900;28;20093;-69
2022/04/06 10:06:37;;;;;;;8.57;1.00;;;13.50;99.20;;;;;;5002602;28;20277;-71
2022/04/06 10:09:06;;;;;;;7.70;1.40;;;13.50;99.50;;;;;;5003395;28;20065;-73
2022/04/06 10:11:36;;;;;;;4.88;0.82;;;13.50;99.90;;;;;;5004307;28;20022;-73
2022/04/06 10:14:05;;;;;;;25.25;2.20;;;13.50;99.70;;;;;;5021380;28;20041;-72
2022/04/06 10:16:32;;;;;;;9.60;1.20;;;13.60;99.80;;;;;;5017421;28;20072;-72
2022/04/06 10:18:59;;;;;;;9.13;0.80;;;13.70;99.30;;;;;;5010343;28;20045;-72
2022/04/06 10:21:39;;;;;;;5.68;1.00;;;13.70;99.30;;;;;;5025732;28;20033;-69
2022/04/06 10:24:44;;;;;;;6.60;0.90;;;13.60;99.30;;;;;;5025489;28;20022;-71
2022/04/06 10:27:28;;;;;;;19.33;2.17;;;13.70;99.50;;;;;;5014656;28;20068;-71
2022/04/06 10:30:17;;;;;;;11.13;1.13;;;13.70;99.90;;;;;;5040342;28;20033;-73
2022/04/06 10:32:44;;;;;;;13.07;1.17;;;13.80;99.90;;;;;;5024809;28;20030;-72
2022/04/06 10:35:20;;;;;;;8.40;1.00;;;14.00;99.60;;;;;;5019665;28;20025;-70
2022/04/06 10:37:49;;;;;;;9.55;1.30;;;14.10;98.90;;;;;;5025209;28;20026;-72
2022/04/06 10:40:14;;;;;;;11.80;1.08;;;14.10;99.10;;;;;;4988865;28;20044;-72
2022/04/06 10:42:42;;;;;;;7.38;1.30;;;14.10;98.90;;;;;;5009848;28;20060;-72
2022/04/06 10:45:35;;;;;;;18.02;2.55;;;14.00;99.30;;;;;;5004839;28;20029;-69
2022/04/06 10:48:11;;;;;;;9.25;1.45;;;14.00;98.90;;;;;;5010455;28;20337;-73
2022/04/06 10:50:37;;;;;;;7.78;1.00;;;13.90;99.20;;;;;;5021581;28;20313;-72
2022/04/06 10:53:25;;;;;;;8.75;1.35;;;13.90;98.50;;;;;;5006148;28;20205;-72
2022/04/06 10:56:17;;;;;;;9.65;1.02;;;13.90;99.30;;;;;;4993155;28;20022;-75
2022/04/06 10:59:05;;;;;;;8.82;1.63;;;14.00;99.40;;;;;;5007902;28;20034;-71
2022/04/06 11:01:33;;;;;;;8.70;0.77;;;13.90;99.40;;;;;;5017795;28;20101;-73
2022/04/06 11:04:04;;;;;;;5.20;1.10;;;13.80;99.00;;;;;;4998685;28;20060;-72
2022/04/06 11:06:55;;;;;;;11.85;1.30;;;13.50;98.70;;;;;;5004440;28;20026;-70
2022/04/06 11:12:30;;;;;;;6.57;1.15;;;13.60;99.60;;;;;;5028307;28;20088;-72
2022/04/06 11:15:17;;;;;;;11.80;1.50;;;13.80;98.70;;;;;;5022804;28;20033;-72
2022/04/06 11:17:45;;;;;;;7.70;1.02;;;14.00;98.30;;;;;;5024245;28;20293;-71
2022/04/06 11:20:14;;;;;;;7.60;1.10;;;14.00;98.00;;;;;;5021064;28;20089;-72
2022/04/06 11:22:43;;;;;;;14.32;1.50;;;14.00;98.40;;;;;;5010614;28;20026;-76
2022/04/06 11:25:12;;;;;;;5.82;1.00;;;14.00;98.30;;;;;;5005010;28;20266;-73
2022/04/06 11:27:39;;;;;;;6.13;1.02;;;14.00;98.20;;;;;;5014009;28;20201;-72
2022/04/06 11:30:13;;;;;;;10.55;1.30;;;14.10;98.30;;;;;;5007358;28;20033;-73
2022/04/06 11:32:40;;;;;;;7.30;1.80;;;14.20;98.20;;;;;;4992836;28;20049;-73
2022/04/06 11:35:08;;;;;;;5.78;0.90;;;14.40;98.00;;;;;;5010229;28;20352;-74
2022/04/06 11:37:50;;;;;;;18.45;1.50;;;14.70;96.90;;;;;;5004528;28;20269;-74
2022/04/06 11:40:18;;;;;;;11.70;1.55;;;15.00;96.80;;;;;;5023509;28;20048;-74
2022/04/06 11:42:52;;;;;;;7.18;1.15;;;15.20;96.20;;;;;;5022682;28;20072;-73
2022/04/06 11:45:26;;;;;;;8.55;1.13;;;14.90;96.60;;;;;;5016811;28;20217;-70
2022/04/06 11:47:54;;;;;;;9.98;1.88;;;14.80;96.50;;;;;;5022236;28;20041;-72
2022/04/06 11:50:20;;;;;;;11.73;1.30;;;14.80;96.50;;;;;;5024197;28;20022;-72
2022/04/06 11:52:47;;;;;;;7.10;1.10;;;14.90;96.80;;;;;;5002730;28;20022;-70
2022/04/06 11:55:12;;;;;;;9.02;1.23;;;15.00;96.00;;;;;;5003408;28;20349;-73
2022/04/06 11:57:42;;;;;;;6.07;1.00;;;15.10;96.00;;;;;;5003158;28;20045;-73
2022/04/06 12:00:11;;;;;;;5.00;1.20;;;15.20;94.60;;;;;;5006958;28;20208;-71
2022/04/06 12:02:54;;;;;;;8.80;0.70;;;14.30;95.70;;;;;;5018101;28;20018;-76
2022/04/06 12:05:22;;;;;;;0.88;0.20;;;11.80;99.90;;;;;;5022092;28;20080;-78
2022/04/06 12:08:04;;;;;;;3.20;0.50;;;10.60;99.90;;;;;;5008689;28;20026;-79
2022/04/06 12:10:30;;;;;;;2.22;0.75;;;9.90;99.90;;;;;;5006900;28;20030;-75
2022/04/06 12:12:56;;;;;;;6.18;0.88;;;9.80;99.90;;;;;;5038679;28;20064;-74
2022/04/06 12:15:22;;;;;;;2.58;0.50;;;9.90;99.90;;;;;;5023906;28;20038;-74
2022/04/06 12:17:48;;;;;;;5.40;0.55;;;10.00;99.90;;;;;;5022575;28;20316;-75
2022/04/06 12:20:22;;;;;;;5.68;0.73;;;10.10;99.90;;;;;;5002885;28;20094;-72
2022/04/06 12:23:08;;;;;;;1.77;0.60;;;10.10;99.90;;;;;;5037373;28;20279;-74
2022/04/06 12:25:34;;;;;;;3.55;0.47;;;9.90;99.90;;;;;;5021689;28;20030;-75
2022/04/06 12:28:21;;;;;;;3.03;0.60;;;9.80;99.90;;;;;;5006351;28;20105;-75
2022/04/06 12:31:00;;;;;;;1.75;0.30;;;9.60;99.90;;;;;;5022783;28;20022;-73
2022/04/06 12:33:48;;;;;;;5.22;0.50;;;9.60;99.90;;;;;;5013820;28;20026;-72
2022/04/06 12:36:18;;;;;;;1.65;0.50;;;9.60;99.90;;;;;;5008410;28;20025;-75
2022/04/06 12:39:13;;;;;;;2.50;0.40;;;9.60;99.90;;;;;;5006172;28;20151;-75
2022/04/06 12:41:59;;;;;;;7.63;1.05;;;9.70;99.90;;;;;;5009754;28;20313;-73
2022/04/06 12:44:28;;;;;;;2.65;0.50;;;9.80;99.90;;;;;;5001702;28;20061;-71
2022/04/06 12:46:54;;;;;;;4.30;0.60;;;10.00;99.90;;;;;;4995254;28;20041;-72
2022/04/06 12:49:35;;;;;;;3.70;0.50;;;10.30;99.90;;;;;;5021535;28;20076;-70
2022/04/06 12:52:10;;;;;;;5.05;0.50;;;10.60;99.90;;;;;;5022180;28;20320;-71
2022/04/06 12:54:37;;;;;;;6.30;0.90;;;10.60;99.90;;;;;;5002889;28;20340;-74
2022/04/06 12:57:10;;;;;;;1.88;0.55;;;10.70;99.90;;;;;;5020220;28;20057;-74
2022/04/06 12:59:56;;;;;;;2.17;0.47;;;10.70;99.90;;;;;;5001038;28;20026;-72
2022/04/06 13:02:28;;;;;;;4.55;0.65;;;10.70;99.90;;;;;;5001619;28;20022;-76